Hickman, TN

7:37 PM CDT on April 25, 2015 (GMT -0500)
Crossville Memorial-Whitson | | Change Station
CLOSE
Current Station
Airport
Location: Crossville,
Elevation: 1880 ft
Nearby Weather Stations

Elev 1880 ft 35.95 °N, 85.08 °W | Updated 44 minutes ago

Clear
Clear
73 °F
Feels Like 73 °F
N
9
Wind Variable Wind from SW

Today
High -- | Low -- °F
--% Chance of Precip.
Yesterday
High -- | Low -- °F
Precip. -- in
5:58 AM 7:25 PM
Waxing Crescent, 50% visible
Pressure 29.52 in
Visibility 10.0 miles
Clouds Clear
Dew Point 52 °F
Humidity 48%
Rainfall 0.06 in
Snow Depth Not available.
UV 0 out of 12
Pollen 4.80 out of 12
Air Quality Not available.
Flu Activity Sporadic
METAR KCSV 252353Z AUTO 23008KT 190V270 10SM CLR 23/11 A2957 RMK AO2 SLP996 T02280111 10250 20211 58018

More Conditions Fewer Conditions

Pressure 29.52 in
Visibility 10.0 miles
Clouds Clear
Dew Point 52 °F
Humidity 48%
Rainfall 0.06 in
Snow Depth Not available.
UV 0 out of 12
Pollen 4.80 out of 12
Air Quality Not available.
Flu Activity Sporadic
METAR KCSV 252353Z AUTO 23008KT 190V270 10SM CLR 23/11 A2957 RMK AO2 SLP996 T02280111 10250 20211 58018

More Conditions Fewer Conditions

10-Day Weather Forecast

Almanac

Astronomy

Apr. 25, 2015 Rise Set
Actual Time
Civil Twilight
Nautical Twilight
Astronomical Twilight
Moon
Length of Visible Light
Length of Day
Tomorrow will be .
, % of the Moon is Illuminated

Today's Extremes

State Highs State Lows

Community

WunderPhotos

Upload Photos

1,816,865 photos uploaded!

WunderBlogs® & News

Nearby

Air Quality

  Air Quality AQ Index Pollutant
Not available.

Snow Depth

Station Depth Elevation

Earthquake Activity

City Distance Mag. Time & Date
Minimum magnitude displayed is 2.5.

Coastal Water Temperatures

Place Temperature

Stations

Nearby Weather Stations

Station Location Temp. Windchill Dew Point Humidity Wind Precip. Elev Updated Type